createdAt,value
2022-10-18T00:02:13.564Z,3.60
2022-10-18T00:04:44.211Z,4.27
2022-10-18T00:07:14.750Z,3.90
2022-10-18T00:09:45.319Z,3.57
2022-10-18T00:12:15.918Z,3.70
2022-10-18T00:14:46.551Z,4.00
2022-10-18T00:17:17.063Z,4.00
2022-10-18T00:19:48.537Z,3.47
2022-10-18T00:22:19.065Z,3.83
2022-10-18T00:24:49.776Z,3.57
2022-10-18T00:27:20.533Z,4.30
2022-10-18T00:29:54.237Z,4.30
2022-10-18T00:32:25.235Z,4.23
2022-10-18T00:34:55.761Z,4.30
2022-10-18T00:37:26.330Z,4.07
2022-10-18T00:39:56.910Z,4.27
2022-10-18T00:42:30.940Z,4.10
2022-10-18T00:45:19.780Z,4.10
2022-10-18T00:47:54.319Z,3.70
2022-10-18T00:50:26.523Z,3.90
2022-10-18T00:53:00.291Z,4.43
2022-10-18T00:55:32.949Z,3.47
2022-10-18T00:58:05.029Z,4.17
2022-10-18T01:00:37.346Z,3.83
2022-10-18T01:03:08.786Z,3.30
2022-10-18T01:05:42.993Z,3.87
2022-10-18T01:08:28.376Z,4.27
2022-10-18T01:11:05.413Z,3.93
2022-10-18T01:13:43.360Z,4.50
2022-10-18T01:16:19.325Z,3.73
2022-10-18T01:18:53.659Z,3.70
2022-10-18T01:21:33.452Z,4.27
2022-10-18T01:24:37.347Z,4.03
2022-10-18T01:27:30.720Z,3.93
2022-10-18T01:30:23.518Z,4.10
2022-10-18T01:32:57.164Z,3.70
2022-10-18T01:35:30.764Z,4.13
2022-10-18T01:38:04.275Z,4.13
2022-10-18T01:40:36.978Z,4.10
2022-10-18T01:43:09.868Z,4.40
2022-10-18T01:45:40.926Z,3.93
2022-10-18T01:48:13.552Z,4.30
2022-10-18T01:50:44.085Z,4.40
2022-10-18T01:53:32.832Z,3.93
2022-10-18T01:56:11.607Z,4.17
2022-10-18T01:58:45.613Z,3.60
2022-10-18T02:01:21.523Z,3.80
2022-10-18T02:03:55.019Z,3.53
2022-10-18T02:06:28.998Z,3.80
2022-10-18T02:09:03.103Z,4.40
2022-10-18T02:11:36.096Z,3.90
2022-10-18T02:14:09.733Z,3.60
2022-10-18T02:16:44.676Z,3.87
2022-10-18T02:19:19.477Z,4.10
2022-10-18T02:21:51.533Z,4.57
2022-10-18T02:24:25.061Z,4.00
2022-10-18T02:26:55.812Z,4.13
2022-10-18T02:29:26.554Z,4.50
2022-10-18T02:32:00.897Z,4.27
2022-10-18T02:34:34.363Z,4.27
2022-10-18T02:37:06.626Z,4.40
2022-10-18T02:39:39.352Z,4.17
2022-10-18T02:42:12.151Z,4.30
2022-10-18T02:44:42.968Z,4.37
2022-10-18T02:47:14.580Z,4.87
2022-10-18T02:49:45.113Z,4.30
2022-10-18T02:52:15.650Z,4.30
2022-10-18T02:54:46.238Z,4.80
2022-10-18T02:57:16.771Z,3.93
2022-10-18T02:59:47.331Z,3.80
2022-10-18T03:02:17.912Z,4.60
2022-10-18T03:04:48.527Z,4.57
2022-10-18T03:07:19.058Z,4.27
2022-10-18T03:09:49.595Z,4.03
2022-10-18T03:12:20.266Z,4.27
2022-10-18T03:14:50.847Z,4.60
2022-10-18T03:17:21.373Z,4.10
2022-10-18T03:19:52.021Z,4.20
2022-10-18T03:22:22.996Z,4.70
2022-10-18T03:24:54.012Z,5.13
2022-10-18T03:27:24.579Z,5.17
2022-10-18T03:29:55.243Z,4.80
2022-10-18T03:32:25.778Z,4.67
2022-10-18T03:34:56.507Z,4.73
2022-10-18T03:37:27.104Z,4.50
2022-10-18T03:39:57.711Z,4.53
2022-10-18T03:42:28.338Z,4.60
2022-10-18T03:44:58.940Z,4.83
2022-10-18T03:47:29.516Z,4.37
2022-10-18T03:50:00.210Z,5.00
2022-10-18T03:52:31.267Z,5.13
2022-10-18T03:55:02.265Z,4.93
2022-10-18T03:57:32.790Z,4.13
2022-10-18T04:00:03.356Z,4.37
2022-10-18T04:02:34.119Z,4.17
2022-10-18T04:05:05.061Z,3.83
2022-10-18T04:10:08.745Z,3.97
2022-10-18T04:12:39.272Z,4.03
2022-10-18T04:15:12.543Z,4.03
2022-10-18T04:17:43.211Z,4.23
2022-10-18T04:20:14.826Z,4.13
2022-10-18T04:22:45.449Z,4.83
2022-10-18T04:25:16.037Z,4.37
2022-10-18T04:27:46.795Z,5.30
2022-10-18T04:30:17.568Z,4.93
2022-10-18T04:32:48.135Z,4.80
2022-10-18T04:35:20.069Z,4.47
2022-10-18T04:37:50.609Z,3.93
2022-10-18T04:40:23.333Z,5.27
2022-10-18T04:42:53.913Z,4.60
2022-10-18T04:45:24.533Z,4.53
2022-10-18T04:47:55.062Z,4.83
2022-10-18T04:50:25.732Z,4.27
2022-10-18T04:52:56.278Z,5.80
2022-10-18T04:55:26.788Z,5.67
2022-10-18T04:57:57.371Z,5.83
2022-10-18T05:00:27.946Z,4.80
2022-10-18T05:03:00.099Z,5.37
2022-10-18T05:05:49.764Z,5.30
2022-10-18T05:08:02.935Z,5.60
2022-10-18T05:10:33.477Z,5.90
2022-10-18T05:15:42.409Z,5.30
2022-10-18T05:23:42.402Z,6.43
2022-10-18T05:26:13.023Z,5.43
2022-10-18T05:28:43.740Z,5.33
2022-10-18T05:31:14.400Z,6.80
2022-10-18T05:33:45.158Z,5.03
2022-10-18T05:36:15.921Z,5.60
2022-10-18T05:38:50.641Z,5.73
2022-10-18T05:41:21.382Z,5.83
2022-10-18T05:43:52.059Z,5.77
2022-10-18T05:46:22.693Z,5.87
2022-10-18T05:48:53.710Z,6.53
2022-10-18T05:51:24.395Z,6.23
2022-10-18T05:53:55.143Z,5.67
2022-10-18T05:59:07.197Z,5.60
2022-10-18T06:01:37.868Z,5.57
2022-10-18T06:04:10.315Z,5.77
2022-10-18T06:06:41.570Z,5.80
2022-10-18T06:09:12.234Z,6.20
2022-10-18T06:11:42.851Z,6.47
2022-10-18T06:14:13.494Z,7.50
2022-10-18T06:16:44.196Z,6.33
2022-10-18T06:19:14.861Z,6.13
2022-10-18T06:21:47.699Z,6.30
2022-10-18T06:24:22.229Z,6.10
2022-10-18T06:26:53.567Z,6.20
2022-10-18T06:32:02.583Z,7.17
2022-10-18T06:34:33.671Z,6.30
2022-10-18T06:37:05.939Z,6.40
2022-10-18T06:39:36.946Z,6.10
2022-10-18T06:42:08.358Z,6.07
2022-10-18T06:44:39.098Z,7.47
2022-10-18T06:47:11.490Z,6.47
2022-10-18T06:49:42.026Z,6.40
2022-10-18T06:52:12.535Z,6.60
2022-10-18T06:54:45.317Z,7.40
2022-10-18T06:57:15.367Z,7.53
2022-10-18T06:59:46.081Z,6.30
2022-10-18T07:02:18.380Z,5.97
2022-10-18T07:04:48.956Z,6.63
2022-10-18T07:07:21.360Z,7.20
2022-10-18T07:09:51.933Z,6.93
2022-10-18T07:12:22.579Z,7.03
2022-10-18T07:14:53.263Z,6.80
2022-10-18T07:17:23.843Z,7.83
2022-10-18T07:19:54.565Z,6.77
2022-10-18T07:22:30.073Z,6.87
2022-10-18T07:24:58.504Z,7.00
2022-10-18T07:27:29.424Z,7.07
2022-10-18T07:30:00.229Z,7.33
2022-10-18T07:32:31.121Z,7.80
2022-10-18T07:35:02.697Z,8.20
2022-10-18T07:37:33.456Z,7.07
2022-10-18T07:40:04.128Z,7.10
2022-10-18T07:42:35.864Z,7.60
2022-10-18T07:45:07.189Z,7.17
2022-10-18T07:50:16.435Z,7.40
2022-10-18T07:52:47.019Z,6.40
2022-10-18T07:55:17.737Z,6.83
2022-10-18T07:57:48.320Z,6.33
2022-10-18T08:00:19.210Z,6.60
2022-10-18T08:02:49.752Z,6.40
2022-10-18T08:05:20.407Z,5.93
2022-10-18T08:07:50.984Z,6.43
2022-10-18T08:10:22.413Z,6.20
2022-10-18T08:12:53.325Z,6.57
2022-10-18T08:15:25.485Z,6.43
2022-10-18T08:17:56.059Z,6.07
2022-10-18T08:20:30.857Z,6.20
2022-10-18T08:23:00.840Z,5.43
2022-10-18T08:25:32.118Z,6.70
2022-10-18T08:28:02.688Z,6.13
2022-10-18T08:30:33.391Z,6.33
2022-10-18T08:33:04.000Z,6.33
2022-10-18T08:35:34.670Z,5.63
2022-10-18T08:38:05.236Z,5.83
2022-10-18T08:40:36.471Z,5.67
2022-10-18T08:43:10.393Z,5.40
2022-10-18T08:45:43.908Z,6.13
2022-10-18T08:48:22.715Z,5.70
2022-10-18T08:50:55.659Z,6.13
2022-10-18T08:53:30.598Z,6.30
2022-10-18T08:56:04.556Z,5.60
2022-10-18T08:58:35.921Z,6.20
2022-10-18T09:03:59.022Z,5.37
2022-10-18T09:06:33.013Z,5.60
2022-10-18T09:09:15.127Z,5.60
2022-10-18T09:11:51.894Z,5.50
2022-10-18T09:14:47.169Z,6.00
2022-10-18T09:17:22.771Z,5.87
2022-10-18T09:20:05.202Z,5.93
2022-10-18T09:22:42.764Z,6.50
2022-10-18T09:25:17.251Z,6.03
2022-10-18T09:27:53.445Z,6.27
2022-10-18T09:30:33.444Z,6.70
2022-10-18T09:33:10.429Z,6.23
2022-10-18T09:35:44.787Z,5.70
2022-10-18T09:38:18.395Z,4.83
2022-10-18T09:40:54.797Z,5.40
2022-10-18T09:43:27.710Z,5.07
2022-10-18T09:45:58.936Z,5.10
2022-10-18T09:48:32.768Z,5.30
2022-10-18T09:51:07.013Z,5.00
2022-10-18T09:53:40.585Z,5.27
2022-10-18T09:56:14.789Z,4.93
2022-10-18T09:58:47.706Z,4.37
2022-10-18T10:01:20.899Z,4.70
2022-10-18T10:03:52.307Z,4.63
2022-10-18T10:06:31.098Z,4.57
2022-10-18T10:09:04.727Z,4.50
2022-10-18T10:11:38.480Z,5.00
2022-10-18T10:14:19.755Z,4.90
2022-10-18T10:16:53.260Z,4.13
2022-10-18T10:19:28.248Z,4.23
2022-10-18T10:22:11.251Z,4.50
2022-10-18T10:24:49.947Z,4.57
2022-10-18T10:27:22.827Z,4.73
2022-10-18T10:29:58.186Z,4.07
2022-10-18T10:32:32.495Z,4.47
2022-10-18T10:35:03.226Z,3.73
2022-10-18T10:37:36.508Z,4.23
2022-10-18T10:40:21.222Z,3.70
2022-10-18T10:43:19.611Z,4.87
2022-10-18T10:45:40.729Z,4.00
2022-10-18T10:48:16.819Z,4.43
2022-10-18T10:50:55.540Z,3.60
2022-10-18T10:53:38.879Z,3.97
2022-10-18T10:56:22.129Z,4.00
2022-10-18T10:58:53.962Z,3.47
2022-10-18T11:01:33.674Z,3.87
2022-10-18T11:04:07.478Z,4.37
2022-10-18T11:06:49.674Z,3.50
2022-10-18T11:09:43.120Z,3.90
2022-10-18T11:12:34.970Z,3.20
2022-10-18T11:18:04.068Z,4.17
2022-10-18T11:20:38.799Z,4.07
2022-10-18T11:23:12.006Z,3.40
2022-10-18T11:25:58.345Z,3.17
2022-10-18T11:28:47.847Z,3.65
2022-10-18T11:31:21.636Z,2.90
2022-10-18T11:34:10.316Z,3.60
2022-10-18T11:36:49.332Z,3.20
2022-10-18T11:39:17.637Z,3.20
2022-10-18T11:41:51.815Z,3.45
2022-10-18T11:47:07.643Z,3.35
2022-10-18T11:49:49.849Z,3.62
2022-10-18T11:52:23.707Z,3.33
2022-10-18T11:55:18.298Z,3.42
2022-10-18T11:57:54.118Z,3.45
2022-10-18T12:00:39.796Z,3.62
2022-10-18T12:03:26.431Z,3.35
2022-10-18T12:05:59.453Z,2.77
2022-10-18T12:08:33.297Z,3.05
2022-10-18T12:11:07.083Z,3.33
2022-10-18T12:13:41.760Z,3.25
2022-10-18T12:16:13.449Z,3.00
2022-10-18T12:21:25.717Z,2.77
2022-10-18T12:23:59.306Z,2.50
2022-10-18T12:26:32.371Z,2.60
2022-10-18T12:29:10.080Z,3.02
2022-10-18T12:31:44.015Z,2.33
2022-10-18T12:34:27.475Z,2.77
2022-10-18T12:37:33.717Z,1.98
2022-10-18T12:40:14.304Z,2.40
2022-10-18T12:45:53.216Z,2.27
2022-10-18T12:48:34.613Z,2.70
2022-10-18T12:51:10.334Z,2.17
2022-10-18T12:53:42.407Z,2.27
2022-10-18T12:59:56.466Z,2.42
2022-10-18T13:02:32.437Z,2.22
2022-10-18T13:05:06.797Z,2.05
2022-10-18T13:07:43.311Z,2.27
2022-10-18T13:10:47.702Z,2.12
2022-10-18T13:16:42.477Z,1.92
2022-10-18T13:19:19.918Z,2.40
2022-10-18T13:21:54.888Z,2.45
2022-10-18T13:24:30.224Z,2.60
2022-10-18T13:27:35.593Z,2.50
2022-10-18T13:33:05.196Z,2.90
2022-10-18T13:35:55.407Z,2.60
2022-10-18T13:38:50.897Z,2.20
2022-10-18T13:44:19.403Z,2.00
2022-10-18T13:47:37.659Z,2.47
2022-10-18T13:50:28.032Z,2.60
2022-10-18T13:53:32.836Z,2.55
2022-10-18T13:56:28.344Z,2.70
2022-10-18T13:59:15.259Z,2.70
2022-10-18T14:01:57.669Z,2.55
2022-10-18T14:05:10.799Z,2.50
2022-10-18T14:07:32.112Z,2.83
2022-10-18T14:10:04.578Z,2.47
2022-10-18T14:12:38.785Z,3.20
2022-10-18T14:17:52.555Z,2.73
2022-10-18T14:20:29.975Z,3.07
2022-10-18T14:23:05.207Z,2.63
2022-10-18T14:25:38.221Z,2.90
2022-10-18T14:28:13.049Z,2.87
2022-10-18T14:30:58.068Z,3.17
2022-10-18T14:33:35.795Z,2.73
2022-10-18T14:36:14.480Z,3.00
2022-10-18T14:38:50.328Z,2.80
2022-10-18T14:41:23.840Z,3.17
2022-10-18T14:43:56.612Z,2.73
2022-10-18T14:46:30.158Z,2.60
2022-10-18T14:49:03.243Z,2.57
2022-10-18T14:51:36.705Z,2.80
2022-10-18T14:54:09.557Z,2.60
2022-10-18T14:56:42.687Z,3.30
2022-10-18T14:59:18.985Z,3.17
2022-10-18T15:01:58.842Z,2.60
2022-10-18T15:04:33.235Z,2.40
2022-10-18T15:07:05.931Z,2.53
2022-10-18T15:09:38.307Z,2.87
2022-10-18T15:12:10.111Z,2.43
2022-10-18T15:14:43.820Z,2.60
2022-10-18T15:17:19.243Z,2.87
2022-10-18T15:20:01.964Z,2.60
2022-10-18T15:22:33.684Z,2.50
2022-10-18T15:25:17.077Z,2.43
2022-10-18T15:27:50.420Z,2.33
2022-10-18T15:30:28.373Z,2.53
2022-10-18T15:33:00.737Z,2.83
2022-10-18T15:35:33.185Z,2.80
2022-10-18T15:38:06.298Z,2.70
2022-10-18T15:40:55.939Z,2.30
2022-10-18T15:43:38.903Z,2.50
2022-10-18T15:46:17.269Z,2.70
2022-10-18T15:48:48.057Z,2.70
2022-10-18T15:51:23.133Z,3.20
2022-10-18T15:53:57.418Z,2.60
2022-10-18T15:56:33.670Z,2.50
2022-10-18T15:59:06.251Z,2.80
2022-10-18T16:04:20.118Z,2.70
2022-10-18T16:06:50.639Z,3.27
2022-10-18T16:09:22.565Z,3.37
2022-10-18T16:11:57.080Z,2.90
2022-10-18T16:14:25.812Z,2.80
2022-10-18T16:17:02.301Z,2.83
2022-10-18T16:19:33.616Z,3.00
2022-10-18T16:22:06.921Z,3.53
2022-10-18T16:24:36.441Z,3.10
2022-10-18T16:27:07.212Z,2.93
2022-10-18T16:29:37.746Z,3.10
2022-10-18T16:32:08.872Z,3.13
2022-10-18T16:34:39.499Z,3.10
2022-10-18T16:37:10.801Z,3.23
2022-10-18T16:39:41.427Z,3.13
2022-10-18T16:42:12.098Z,3.47
2022-10-18T16:44:42.714Z,2.63
2022-10-18T16:47:13.848Z,2.60
2022-10-18T16:49:45.412Z,2.97
2022-10-18T16:52:16.007Z,3.13
2022-10-18T16:54:46.600Z,3.13
2022-10-18T16:57:17.119Z,2.57
2022-10-18T16:59:47.780Z,4.37
2022-10-18T17:02:18.314Z,3.70
2022-10-18T17:04:48.972Z,3.90
2022-10-18T17:07:23.348Z,3.47
2022-10-18T17:09:53.961Z,4.03
2022-10-18T17:12:24.595Z,3.57
2022-10-18T17:14:55.264Z,3.60
2022-10-18T17:17:25.797Z,3.53
2022-10-18T17:19:56.764Z,3.97
2022-10-18T17:22:27.550Z,3.47
2022-10-18T17:24:58.165Z,4.73
2022-10-18T17:27:28.766Z,3.47
2022-10-18T17:29:59.346Z,3.47
2022-10-18T17:32:29.859Z,3.60
2022-10-18T17:35:00.540Z,3.43
2022-10-18T17:37:31.351Z,3.30
2022-10-18T17:40:02.210Z,3.33
2022-10-18T17:42:32.740Z,3.70
2022-10-18T17:45:03.324Z,3.33
2022-10-18T17:47:34.150Z,2.97
2022-10-18T17:50:05.147Z,3.33
2022-10-18T17:52:35.777Z,3.30
2022-10-18T17:55:07.056Z,4.10
2022-10-18T17:57:38.092Z,3.87
2022-10-18T18:00:12.849Z,3.70
2022-10-18T18:02:43.636Z,3.63
2022-10-18T18:05:14.606Z,4.17
2022-10-18T18:07:46.230Z,4.17
2022-10-18T18:10:17.164Z,3.00
2022-10-18T18:12:48.117Z,2.70
2022-10-18T18:15:19.173Z,3.07
2022-10-18T18:17:57.953Z,2.97
2022-10-18T18:20:22.290Z,3.50
2022-10-18T18:22:53.416Z,2.80
2022-10-18T18:25:24.077Z,3.07
2022-10-18T18:27:55.219Z,2.80
2022-10-18T18:30:25.776Z,3.03
2022-10-18T18:32:56.329Z,3.50
2022-10-18T18:35:26.928Z,3.00
2022-10-18T18:37:57.507Z,3.30
2022-10-18T18:40:28.131Z,3.27
2022-10-18T18:43:12.072Z,2.70
2022-10-18T18:45:32.185Z,2.70
2022-10-18T18:48:02.846Z,2.60
2022-10-18T18:53:11.118Z,2.93
2022-10-18T18:55:43.057Z,3.10
2022-10-18T18:58:14.227Z,4.07
2022-10-18T19:00:45.241Z,3.47
2022-10-18T19:03:15.909Z,2.93
2022-10-18T19:05:46.722Z,3.27
2022-10-18T19:08:17.355Z,3.63
2022-10-18T19:10:49.725Z,3.30
2022-10-18T19:13:20.801Z,3.90
2022-10-18T19:15:51.332Z,3.07
2022-10-18T19:18:23.960Z,3.17
2022-10-18T19:20:54.117Z,3.23
2022-10-18T19:25:55.152Z,3.00
2022-10-18T19:28:25.751Z,3.13
2022-10-18T19:30:58.009Z,3.20
2022-10-18T19:33:41.346Z,3.10
2022-10-18T19:36:01.070Z,3.50
2022-10-18T19:38:31.598Z,3.20
2022-10-18T19:41:02.136Z,3.03
2022-10-18T19:43:32.723Z,3.20
2022-10-18T19:46:05.530Z,3.30
2022-10-18T19:48:36.132Z,3.00
2022-10-18T19:51:09.540Z,3.60
2022-10-18T19:53:41.686Z,3.33
2022-10-18T19:56:15.744Z,3.07
2022-10-18T19:58:46.339Z,3.57
2022-10-18T20:01:17.608Z,2.97
2022-10-18T20:03:50.434Z,3.40
2022-10-18T20:06:21.619Z,3.03
2022-10-18T20:08:53.335Z,3.30
2022-10-18T20:11:26.736Z,3.10
2022-10-18T20:13:57.689Z,3.10
2022-10-18T20:16:30.292Z,3.53
2022-10-18T20:19:02.427Z,3.27
2022-10-18T20:21:35.953Z,4.00
2022-10-18T20:24:07.935Z,3.30
2022-10-18T20:29:17.259Z,3.60
2022-10-18T20:31:47.834Z,3.70
2022-10-18T20:34:18.385Z,3.63
2022-10-18T20:36:49.081Z,3.63
2022-10-18T20:39:19.609Z,3.90
2022-10-18T20:41:50.971Z,4.13
2022-10-18T20:44:22.872Z,4.30
2022-10-18T20:46:53.516Z,4.00
2022-10-18T20:49:24.084Z,3.77
2022-10-18T20:51:54.960Z,4.07
2022-10-18T20:54:25.873Z,3.73
2022-10-18T20:56:56.457Z,4.33
2022-10-18T20:59:27.122Z,3.87
2022-10-18T21:01:57.657Z,3.67
2022-10-18T21:04:28.334Z,4.57
2022-10-18T21:07:00.857Z,4.07
2022-10-18T21:09:31.409Z,3.63
2022-10-18T21:12:02.052Z,3.53
2022-10-18T21:14:33.082Z,3.87
2022-10-18T21:17:03.627Z,3.93
2022-10-18T21:19:34.285Z,4.37
2022-10-18T21:22:04.957Z,3.77
2022-10-18T21:24:36.150Z,4.30
2022-10-18T21:27:06.807Z,3.57
2022-10-18T21:29:37.379Z,4.20
2022-10-18T21:32:08.317Z,3.67
2022-10-18T21:34:38.886Z,3.87
2022-10-18T21:37:09.463Z,4.40
2022-10-18T21:39:41.559Z,4.50
2022-10-18T21:42:12.718Z,4.43
2022-10-18T21:44:43.334Z,4.47
2022-10-18T21:47:15.403Z,4.00
2022-10-18T21:49:45.946Z,4.03
2022-10-18T21:52:16.780Z,3.80
2022-10-18T21:54:47.421Z,3.73
2022-10-18T21:57:18.062Z,3.67
2022-10-18T21:59:48.595Z,4.00
2022-10-18T22:02:19.156Z,4.27
2022-10-18T22:04:50.175Z,4.37
2022-10-18T22:07:20.692Z,4.43
2022-10-18T22:09:51.278Z,4.50
2022-10-18T22:12:21.842Z,3.63
2022-10-18T22:14:52.449Z,3.87
2022-10-18T22:17:23.776Z,4.57
2022-10-18T22:19:54.343Z,4.57
2022-10-18T22:22:24.878Z,4.53
2022-10-18T22:24:55.500Z,4.27
2022-10-18T22:27:26.201Z,4.60
2022-10-18T22:29:56.872Z,4.40
2022-10-18T22:32:27.577Z,4.30
2022-10-18T22:34:58.120Z,4.33
2022-10-18T22:37:28.659Z,4.53
2022-10-18T22:39:59.191Z,4.40
2022-10-18T22:42:29.719Z,4.30
2022-10-18T22:45:00.368Z,4.03
2022-10-18T22:47:31.156Z,4.63
2022-10-18T22:50:01.882Z,5.00
2022-10-18T22:52:32.825Z,4.73
2022-10-18T22:55:03.702Z,4.20
2022-10-18T22:57:34.355Z,4.80
2022-10-18T23:00:05.863Z,4.87
2022-10-18T23:02:36.551Z,4.73
2022-10-18T23:05:08.864Z,4.70
2022-10-18T23:07:39.401Z,5.10
2022-10-18T23:10:10.873Z,4.20
2022-10-18T23:12:41.566Z,4.27
2022-10-18T23:15:13.302Z,3.57
2022-10-18T23:17:43.828Z,4.07
2022-10-18T23:20:14.568Z,4.33
2022-10-18T23:22:45.124Z,4.07
2022-10-18T23:25:15.942Z,4.13
2022-10-18T23:27:46.616Z,4.50
2022-10-18T23:30:18.011Z,5.03
2022-10-18T23:32:48.745Z,4.80
2022-10-18T23:35:19.588Z,5.03
2022-10-18T23:40:27.821Z,4.97
2022-10-18T23:42:58.341Z,4.50
2022-10-18T23:45:28.882Z,4.90
2022-10-18T23:47:59.495Z,4.47
2022-10-18T23:50:30.073Z,5.00
2022-10-18T23:53:00.680Z,4.80
2022-10-18T23:55:31.252Z,5.87
2022-10-18T23:58:01.815Z,4.83
